Grand Ace10 — 3EPV8 — position and weather

sailwx.info

Track history (hours):
 
Tides and Currents Weather Stations Pressure Air Temp Water Temp Dewpoint Dewpoint Depression Visibility Wind Speed Wind Dir Waves Ship Positions

Grand Ace10

Last reported at 2017-Oct-08 12:03 UTC. Time now 2017-Nov-23 03:28 UTC.
Position N 34°01' W 127°05'.
Warning: this ship's position is 45 days out of date.

Length 182 m; draft 8 m.

Type: Tanker. MMSI: 354252000.

Date/timePositionNaut miles runAvg speedWind from/ knotsBaromVisibWave heightAir tempDewpointWater temp
2017-Oct-08 12:03N 34°01' W 127°05'3 9.7
2017-Oct-08 11:43N 33°60' W 127°02'2 9.7
2017-Oct-08 11:28N 33°58' W 126°59'17510.1
2017-Oct-07 18:11N 32°08' W 124°18'1911.1
2017-Oct-07 16:31N 31°56' W 124°01'010.8
2017-Oct-07 16:29N 31°56' W 124°01'911.3
2017-Oct-07 15:40N 31°50' W 123°52'211.1
2017-Oct-07 15:30N 31°49' W 123°50'711.5
2017-Oct-07 14:55N 31°44' W 123°44'511.2
2017-Oct-07 14:30N 31°41' W 123°40'611.2
2017-Oct-07 14:00N 31°38' W 123°35'611.2
2017-Oct-07 13:30N 31°34' W 123°30'611.2
2017-Oct-07 13:00N 31°30' W 123°25'611.2
2017-Oct-07 12:30N 31°27' W 123°20'611.1
2017-Oct-07 12:00N 31°23' W 123°15'611.1
2017-Oct-07 11:30N 31°19' W 123°10'611.2
2017-Oct-07 11:00N 31°16' W 123°05'2511.1
2017-Oct-07 08:47N 31°01' W 122°42'311.3
2017-Oct-07 08:30N 30°59' W 122°40'511.2
2017-Oct-07 08:01N 30°56' W 122°35'611.3
2017-Oct-07 07:31N 30°52' W 122°29'611.1
2017-Oct-07 07:01N 30°49' W 122°24'611.2
2017-Oct-07 06:29N 30°45' W 122°19'1411.3
2017-Oct-07 05:16N 30°36' W 122°07'311.4
2017-Oct-07 05:00N 30°34' W 122°04'811.5
2017-Oct-07 04:18N 30°29' W 121°57'1511.1
2017-Oct-07 02:56N 30°31' W 121°39'511.7
2017-Oct-07 02:31N 30°32' W 121°34'611.7
2017-Oct-07 02:00N 30°33' W 121°27'611.8
2017-Oct-07 01:30N 30°34' W 121°20'611.8
2017-Oct-07 01:00N 30°36' W 121°13'611.6
2017-Oct-07 00:31N 30°37' W 121°07'611.6
2017-Oct-07 00:00N 30°38' W 121°00'1011.5
2017-Oct-06 23:08N 30°40' W 120°49'211.6
2017-Oct-06 22:55N 30°41' W 120°46'511.4
2017-Oct-06 22:30N 30°42' W 120°41'611.5
2017-Oct-06 22:01N 30°43' W 120°34'611.3
2017-Oct-06 21:30N 30°44' W 120°28'611.3
2017-Oct-06 20:56N 30°45' W 120°21'510.9
2017-Oct-06 20:31N 30°47' W 120°15'510.9
2017-Oct-06 20:01N 30°48' W 120°09'611.0
2017-Oct-06 19:30N 30°49' W 120°03'611.1
2017-Oct-06 18:56N 30°50' W 119°55'711.2
2017-Oct-06 18:17N 30°52' W 119°47'311.3
2017-Oct-06 17:59N 30°52' W 119°43'511.3
2017-Oct-06 17:30N 30°54' W 119°37'611.3
2017-Oct-06 17:00N 30°55' W 119°31'611.4
2017-Oct-06 16:31N 30°56' W 119°24'611.5
2017-Oct-06 16:00N 30°57' W 119°18'611.6
2017-Oct-06 15:31N 30°58' W 119°11'611.6
2017-Oct-06 15:00N 30°60' W 119°04'611.6
2017-Oct-06 14:31N 31°01' W 118°58'611.6
2017-Oct-06 14:00N 31°02' W 118°51'611.7
2017-Oct-06 13:30N 31°03' W 118°45'612.2
2017-Oct-06 13:00N 31°05' W 118°38'611.5
2017-Oct-06 12:30N 31°08' W 118°32'612.1
2017-Oct-06 12:00N 31°12' W 118°27'611.8
2017-Oct-06 11:31N 31°16' W 118°22'612.0
2017-Oct-06 11:01N 31°21' W 118°18'612.1
2017-Oct-06 10:30N 31°25' W 118°12'612.0
2017-Oct-06 10:00N 31°29' W 118°07'611.8
2017-Oct-06 09:30N 31°33' W 118°03'611.6
2017-Oct-06 09:01N 31°38' W 117°58'611.8
2017-Oct-06 08:31N 31°42' W 117°53'611.7
2017-Oct-06 07:59N 31°47' W 117°48'612.0
2017-Oct-06 07:31N 31°51' W 117°44'611.6
2017-Oct-06 07:00N 31°55' W 117°39'711.9
2017-Oct-06 06:28N 32°01' W 117°36'511.9
2017-Oct-06 06:01N 32°06' W 117°34'611.7
2017-Oct-06 05:30N 32°12' W 117°31'611.6
2017-Oct-06 05:00N 32°17' W 117°29'611.7
2017-Oct-06 04:31N 32°22' W 117°26'612.2
2017-Oct-06 04:00N 32°28' W 117°23'4 8.6
2017-Oct-06 03:31N 32°32' W 117°21'1 1.7
2017-Oct-06 02:58N 32°33' W 117°21'0 0.1
2017-Oct-06 02:28N 32°33' W 117°21'0 0.1
2017-Oct-06 01:58N 32°33' W 117°21'0 0.1
2017-Oct-06 01:28N 32°33' W 117°21'0 0.1
2017-Oct-06 00:55N 32°33' W 117°21'0 0.1
2017-Oct-06 00:28N 32°33' W 117°21'0 0.0
2017-Oct-05 23:58N 32°33' W 117°21'0 0.0
2017-Oct-05 23:28N 32°33' W 117°21'0 0.0
2017-Oct-05 22:58N 32°33' W 117°21'0 0.0
2017-Oct-05 22:28N 32°33' W 117°21'0 0.0
2017-Oct-05 21:58N 32°33' W 117°21'0 0.0
2017-Oct-05 21:25N 32°33' W 117°21'0 0.1
2017-Oct-05 20:58N 32°33' W 117°21'0 0.0
2017-Oct-05 20:28N 32°33' W 117°21'0 0.0
2017-Oct-05 19:58N 32°33' W 117°21'0 0.0
2017-Oct-05 19:28N 32°33' W 117°21'0 0.0
2017-Oct-05 18:58N 32°33' W 117°21'0 0.1
2017-Oct-05 18:28N 32°33' W 117°21'0 0.0
2017-Oct-05 17:58N 32°33' W 117°21'0 0.1
2017-Oct-05 17:25N 32°33' W 117°21'0 0.2
2017-Oct-05 16:58N 32°33' W 117°21'0 0.0
2017-Oct-05 15:28N 32°33' W 117°21'0 0.1
2017-Oct-05 14:58N 32°33' W 117°21'0 0.0
2017-Oct-05 14:19N 32°33' W 117°21'0 0.0
2017-Oct-05 13:58N 32°33' W 117°21'0 0.0
2017-Oct-05 13:28N 32°33' W 117°21'0 0.0
2017-Oct-05 12:58N 32°33' W 117°21'0 0.1
2017-Oct-05 12:28N 32°33' W 117°21'0 0.1
2017-Oct-05 11:58N 32°33' W 117°21'0 0.0
2017-Oct-05 11:28N 32°33' W 117°21'0 0.0
2017-Oct-05 10:58N 32°33' W 117°21'0 0.0
2017-Oct-05 10:28N 32°33' W 117°21'0 0.1
2017-Oct-05 09:58N 32°33' W 117°21'0 0.0
2017-Oct-05 09:28N 32°33' W 117°21'0 0.1
2017-Oct-05 08:58N 32°33' W 117°21'0 0.0
2017-Oct-05 08:25N 32°33' W 117°21'0 0.3
2017-Oct-05 07:52N 32°33' W 117°21'1 2.7
2017-Oct-05 07:30N 32°34' W 117°22'3 6.8
2017-Oct-05 07:00N 32°36' W 117°25'510.6
2017-Oct-05 06:30N 32°40' W 117°29'510.7
2017-Oct-05 06:00N 32°44' W 117°33'510.8
2017-Oct-05 05:30N 32°48' W 117°38'511.0
2017-Oct-05 05:01N 32°52' W 117°42'510.9
2017-Oct-05 04:30N 32°56' W 117°46'510.9
2017-Oct-05 04:01N 33°00' W 117°50'511.0
2017-Oct-05 03:30N 33°05' W 117°54'611.3
2017-Oct-05 03:00N 33°09' W 117°58'611.2
2017-Oct-05 02:30N 33°14' W 118°02'611.4
2017-Oct-05 02:00N 33°18' W 118°06'611.5
2017-Oct-05 01:30N 33°24' W 118°09'611.5
2017-Oct-05 01:00N 33°28' W 118°13'611.5
2017-Oct-05 00:30N 33°33' W 118°17'611.6
2017-Oct-05 00:01N 33°37' W 118°22'510.4
2017-Oct-04 23:30N 33°41' W 118°26'510.5
2017-Oct-04 23:00N 33°39' W 118°20'611.2
2017-Oct-04 22:30N 33°39' W 118°13'5 9.1
2017-Oct-04 22:00N 33°43' W 118°11'2 4.4
2017-Oct-04 21:30N 33°43' W 118°14'0 0.3
2017-Oct-04 20:59N 33°43' W 118°14'0 0.0
2017-Oct-04 20:29N 33°43' W 118°14'0 0.1
2017-Oct-04 19:38N 33°43' W 118°14'0 0.0
2017-Oct-04 19:26N 33°43' W 118°14'0 0.0
2017-Oct-04 18:59N 33°43' W 118°14'0 0.1
2017-Oct-04 18:29N 33°43' W 118°14'0 0.2
2017-Oct-04 17:50N 33°43' W 118°14'0 0.1
2017-Oct-04 17:23N 33°43' W 118°14'0 0.1
2017-Oct-04 16:44N 33°43' W 118°14'0 0.0
2017-Oct-04 16:26N 33°43' W 118°14'0 0.0
2017-Oct-04 15:56N 33°43' W 118°14'0 0.1
2017-Oct-04 15:29N 33°43' W 118°14'0 0.0
2017-Oct-04 14:50N 33°43' W 118°14'0 0.0
2017-Oct-04 08:17N 33°43' W 118°14'0 0.0
2017-Oct-04 02:56N 33°43' W 118°14'0 0.0
2017-Oct-04 02:08N 33°43' W 118°14'0 0.0
2017-Oct-04 01:50N 33°43' W 118°14'0 0.0
2017-Oct-04 01:26N 33°43' W 118°14'0 0.0
2017-Oct-03 23:14N 33°43' W 118°14'0 0.0
2017-Oct-03 22:44N 33°43' W 118°14'0 0.1
2017-Oct-03 20:26N 33°43' W 118°14'0 0.0
2017-Oct-03 19:59N 33°43' W 118°14'0 0.0
2017-Oct-03 16:14N 33°43' W 118°14'0 0.0
2017-Oct-03 12:44N 33°43' W 118°14'0 0.0
2017-Oct-03 12:26N 33°43' W 118°14'0 0.0
2017-Oct-03 10:56N 33°43' W 118°14'0 0.0
2017-Oct-03 09:56N 33°43' W 118°14'0 0.0
2017-Oct-03 09:26N 33°43' W 118°14'0 0.0
2017-Oct-03 08:56N 33°43' W 118°14'0 0.0
2017-Oct-03 08:26N 33°43' W 118°14'0 0.0
2017-Oct-03 03:05N 33°43' W 118°14'0 0.0
2017-Oct-03 02:56N 33°43' W 118°14'0 0.0
2017-Oct-03 01:32N 33°43' W 118°14'0 0.1
2017-Oct-03 01:11N 33°43' W 118°14'0 0.0
2017-Oct-03 00:59N 33°43' W 118°14'0 0.0
2017-Oct-02 23:14N 33°43' W 118°14'0 0.1
2017-Oct-02 22:56N 33°43' W 118°14'0 0.0
2017-Oct-02 19:56N 33°43' W 118°14'0 0.1
2017-Oct-02 19:26N 33°43' W 118°14'0 0.1
2017-Oct-02 18:32N 33°43' W 118°14'0 0.1
2017-Oct-02 18:26N 33°43' W 118°14'0 0.1
2017-Oct-02 17:56N 33°43' W 118°14'0 0.0
2017-Oct-02 06:50N 33°43' W 118°14'0 0.0
2017-Oct-02 06:26N 33°43' W 118°14'0 0.0
2017-Oct-02 05:56N 33°43' W 118°14'0 0.1
2017-Oct-02 05:23N 33°43' W 118°14'0 0.2
2017-Oct-02 04:59N 33°43' W 118°14'0 0.0
2017-Oct-02 02:59N 33°43' W 118°14'0 0.1
2017-Oct-02 02:29N 33°43' W 118°14'0 0.0
2017-Oct-02 01:56N 33°43' W 118°14'0 0.1
2017-Oct-02 01:29N 33°43' W 118°14'0 0.1
2017-Oct-02 00:56N 33°43' W 118°14'0 0.0
2017-Oct-02 00:29N 33°43' W 118°14'0 0.0
2017-Oct-01 23:59N 33°43' W 118°14'0 0.0
2017-Oct-01 23:17N 33°43' W 118°14'0 0.0
2017-Oct-01 22:56N 33°43' W 118°14'0 0.1
2017-Oct-01 22:20N 33°43' W 118°14'0 0.0
2017-Oct-01 21:50N 33°43' W 118°14'0 0.0
2017-Oct-01 21:29N 33°43' W 118°14'0 0.0
2017-Oct-01 20:59N 33°43' W 118°14'0 0.0
2017-Oct-01 20:23N 33°43' W 118°14'0 0.1
2017-Oct-01 19:50N 33°43' W 118°14'0 0.2
2017-Oct-01 19:20N 33°43' W 118°14'0 0.1
2017-Oct-01 18:59N 33°43' W 118°14'0 0.1
2017-Oct-01 18:26N 33°43' W 118°14'0 0.1
2017-Oct-01 17:38N 33°43' W 118°14'0 0.0
2017-Oct-01 17:29N 33°43' W 118°14'0 0.1
2017-Oct-01 16:59N 33°43' W 118°14'0 0.0
2017-Oct-01 16:26N 33°43' W 118°14'0 0.1
2017-Oct-01 15:59N 33°43' W 118°14'0 0.1
2017-Oct-01 15:14N 33°43' W 118°14'0 0.0
2017-Oct-01 14:56N 33°43' W 118°14'0 0.0
2017-Oct-01 14:29N 33°43' W 118°14'0 0.1
2017-Oct-01 13:50N 33°43' W 118°14'0 0.0
2017-Oct-01 13:29N 33°43' W 118°14'0 0.1
2017-Oct-01 12:56N 33°43' W 118°14'0 0.1
2017-Oct-01 12:29N 33°43' W 118°14'0 0.0
2017-Oct-01 11:56N 33°43' W 118°14'0 0.0
2017-Oct-01 11:29N 33°43' W 118°14'0 0.0
2017-Oct-01 10:59N 33°43' W 118°14'0 0.0
2017-Oct-01 10:29N 33°43' W 118°14'0 0.0
2017-Oct-01 09:59N 33°43' W 118°14'0 0.0
2017-Oct-01 09:29N 33°43' W 118°14'0 0.1
2017-Oct-01 08:53N 33°43' W 118°14'0 0.1
2017-Oct-01 08:29N 33°43' W 118°14'0 0.1
2017-Oct-01 07:59N 33°43' W 118°14'0 0.0
2017-Oct-01 07:29N 33°43' W 118°14'0 0.0
2017-Oct-01 06:59N 33°43' W 118°14'0 0.0
2017-Oct-01 06:29N 33°43' W 118°14'0 0.1
2017-Oct-01 05:59N 33°43' W 118°14'0 0.0
2017-Oct-01 05:29N 33°43' W 118°14'0 0.0
2017-Oct-01 04:59N 33°43' W 118°14'0 0.0
2017-Oct-01 04:29N 33°43' W 118°14'0 0.1
2017-Oct-01 03:59N 33°43' W 118°14'0 0.0
2017-Oct-01 03:29N 33°43' W 118°14'0 0.0
2017-Oct-01 02:59N 33°43' W 118°14'0 0.0
2017-Sep-30 01:56N 33°43' W 118°14'0 0.0
2017-Sep-30 01:29N 33°43' W 118°14'0 0.1
2017-Sep-30 00:59N 33°43' W 118°14'0 0.0
2017-Sep-30 00:29N 33°43' W 118°14'0 0.0
2017-Sep-29 23:56N 33°43' W 118°14'0 0.1
2017-Sep-29 23:29N 33°43' W 118°14'0 0.0
2017-Sep-29 22:59N 33°43' W 118°14'0 0.1
2017-Sep-29 22:29N 33°43' W 118°14'0 0.0
2017-Sep-29 21:59N 33°43' W 118°14'0 0.1
2017-Sep-29 21:29N 33°43' W 118°14'0 0.0
2017-Sep-29 20:59N 33°43' W 118°14'0 0.0
2017-Sep-29 20:29N 33°43' W 118°14'0 0.0
2017-Sep-29 19:59N 33°43' W 118°14'0 0.0
2017-Sep-29 19:29N 33°43' W 118°14'0 0.0
2017-Sep-29 18:59N 33°43' W 118°14'0 0.1
2017-Sep-29 18:29N 33°43' W 118°14'0 0.1
2017-Sep-29 17:59N 33°43' W 118°14'0 0.1
2017-Sep-29 17:29N 33°43' W 118°14'0 0.1
2017-Sep-29 16:59N 33°43' W 118°14'0 0.0
2017-Sep-29 16:23N 33°43' W 118°14'0 0.0
2017-Sep-29 15:56N 33°43' W 118°14'0 0.0
2017-Sep-29 15:26N 33°43' W 118°14'0 0.0
2017-Sep-29 14:59N 33°43' W 118°14'0 0.0
2017-Sep-29 14:29N 33°43' W 118°14'0 0.0
2017-Sep-29 13:44N 33°43' W 118°14'0 0.0
2017-Sep-29 13:26N 33°43' W 118°14'0 0.0
2017-Sep-29 12:59N 33°43' W 118°14'0 0.0
2017-Sep-29 12:29N 33°43' W 118°14'0 0.0
2017-Sep-29 11:59N 33°43' W 118°14'0 0.0
2017-Sep-29 11:29N 33°43' W 118°14'0 0.0
2017-Sep-29 10:56N 33°43' W 118°14'0 0.0
2017-Sep-29 10:29N 33°43' W 118°14'0 0.0
2017-Sep-29 09:56N 33°43' W 118°14'0 0.1
2017-Sep-29 09:29N 33°43' W 118°14'0 0.1
2017-Sep-29 08:59N 33°43' W 118°14'0 0.0
2017-Sep-29 08:29N 33°43' W 118°14'0 0.1
2017-Sep-29 07:59N 33°43' W 118°14'0 0.0
2017-Sep-29 07:29N 33°43' W 118°14'0 0.0
2017-Sep-29 06:59N 33°43' W 118°14'0 0.1
2017-Sep-29 06:29N 33°43' W 118°14'0 0.1
2017-Sep-29 05:59N 33°43' W 118°14'0 0.0
2017-Sep-29 05:29N 33°43' W 118°14'0 0.1
2017-Sep-29 04:59N 33°43' W 118°14'0 0.0
2017-Sep-29 04:29N 33°43' W 118°14'0 0.1
2017-Sep-29 03:59N 33°43' W 118°14'0 0.1
2017-Sep-29 03:29N 33°43' W 118°14'0 0.1
2017-Sep-29 02:56N 33°43' W 118°14'0 0.1
2017-Sep-29 02:26N 33°43' W 118°14'0 0.0
2017-Sep-29 01:59N 33°43' W 118°14'0 0.1
2017-Sep-29 01:29N 33°43' W 118°14'0 0.1
2017-Sep-29 00:59N 33°43' W 118°14'0 0.0
2017-Sep-29 00:29N 33°43' W 118°14'0 0.0
2017-Sep-28 23:59N 33°43' W 118°14'0 0.0
2017-Sep-28 23:23N 33°43' W 118°14'0 0.0
2017-Sep-28 22:59N 33°43' W 118°14'0 0.0
2017-Sep-28 22:29N 33°43' W 118°14'0 0.0
2017-Sep-28 21:59N 33°43' W 118°14'0 0.0
2017-Sep-28 21:29N 33°43' W 118°14'0 0.0
2017-Sep-28 20:56N 33°43' W 118°14'0 0.0
2017-Sep-28 20:29N 33°43' W 118°14'0 0.0
2017-Sep-28 19:59N 33°43' W 118°14'0 0.0
2017-Sep-28 19:29N 33°43' W 118°14'0 0.1
2017-Sep-28 18:59N 33°43' W 118°14'0 0.0
2017-Sep-28 18:26N 33°43' W 118°14'0 0.2
2017-Sep-28 17:56N 33°43' W 118°14'0 0.1
2017-Sep-28 17:29N 33°43' W 118°14'0 0.0
2017-Sep-28 16:59N 33°43' W 118°14'0 0.0
2017-Sep-28 16:29N 33°43' W 118°14'0 0.1
2017-Sep-28 15:59N 33°43' W 118°14'0 0.1
2017-Sep-28 15:29N 33°43' W 118°14'0 0.0
2017-Sep-28 14:59N 33°43' W 118°14'0 0.1
2017-Sep-28 14:29N 33°43' W 118°14'0 0.1
2017-Sep-28 13:44N 33°43' W 118°14'0 0.1
2017-Sep-28 13:29N 33°43' W 118°14'0 0.0
2017-Sep-28 12:59N 33°43' W 118°14'0 0.1
2017-Sep-28 12:29N 33°43' W 118°14'  
Track history (hours):
 
Tides and Currents Weather Stations Pressure Air Temp Water Temp Dewpoint Dewpoint Depression Visibility Wind Speed Wind Dir Waves Ship Positions

Grand Ace10

Last reported at 2017-Oct-08 12:03 UTC. Time now 2017-Nov-23 03:28 UTC.
Position N 34°01' W 127°05'.
Warning: this ship's position is 45 days out of date.

Length 182 m; draft 8 m.

Type: Tanker. MMSI: 354252000.

Date/timePositionNaut miles runAvg speedWind from/ knotsBaromVisibWave heightAir tempDewpointWater temp
2017-Oct-08 12:03N 34°01' W 127°05'3 9.7
2017-Oct-08 11:43N 33°60' W 127°02'2 9.7
2017-Oct-08 11:28N 33°58' W 126°59'17510.1
2017-Oct-07 18:11N 32°08' W 124°18'1911.1
2017-Oct-07 16:31N 31°56' W 124°01'010.8
2017-Oct-07 16:29N 31°56' W 124°01'911.3
2017-Oct-07 15:40N 31°50' W 123°52'211.1
2017-Oct-07 15:30N 31°49' W 123°50'711.5
2017-Oct-07 14:55N 31°44' W 123°44'511.2
2017-Oct-07 14:30N 31°41' W 123°40'611.2
2017-Oct-07 14:00N 31°38' W 123°35'611.2
2017-Oct-07 13:30N 31°34' W 123°30'611.2
2017-Oct-07 13:00N 31°30' W 123°25'611.2
2017-Oct-07 12:30N 31°27' W 123°20'611.1
2017-Oct-07 12:00N 31°23' W 123°15'611.1
2017-Oct-07 11:30N 31°19' W 123°10'611.2
2017-Oct-07 11:00N 31°16' W 123°05'2511.1
2017-Oct-07 08:47N 31°01' W 122°42'311.3
2017-Oct-07 08:30N 30°59' W 122°40'511.2
2017-Oct-07 08:01N 30°56' W 122°35'611.3
2017-Oct-07 07:31N 30°52' W 122°29'611.1
2017-Oct-07 07:01N 30°49' W 122°24'611.2
2017-Oct-07 06:29N 30°45' W 122°19'1411.3
2017-Oct-07 05:16N 30°36' W 122°07'311.4
2017-Oct-07 05:00N 30°34' W 122°04'811.5
2017-Oct-07 04:18N 30°29' W 121°57'1511.1
2017-Oct-07 02:56N 30°31' W 121°39'511.7
2017-Oct-07 02:31N 30°32' W 121°34'611.7
2017-Oct-07 02:00N 30°33' W 121°27'611.8
2017-Oct-07 01:30N 30°34' W 121°20'611.8
2017-Oct-07 01:00N 30°36' W 121°13'611.6
2017-Oct-07 00:31N 30°37' W 121°07'611.6
2017-Oct-07 00:00N 30°38' W 121°00'1011.5
2017-Oct-06 23:08N 30°40' W 120°49'211.6
2017-Oct-06 22:55N 30°41' W 120°46'511.4
2017-Oct-06 22:30N 30°42' W 120°41'611.5
2017-Oct-06 22:01N 30°43' W 120°34'611.3
2017-Oct-06 21:30N 30°44' W 120°28'611.3
2017-Oct-06 20:56N 30°45' W 120°21'510.9
2017-Oct-06 20:31N 30°47' W 120°15'510.9
2017-Oct-06 20:01N 30°48' W 120°09'611.0
2017-Oct-06 19:30N 30°49' W 120°03'611.1
2017-Oct-06 18:56N 30°50' W 119°55'711.2
2017-Oct-06 18:17N 30°52' W 119°47'311.3
2017-Oct-06 17:59N 30°52' W 119°43'511.3
2017-Oct-06 17:30N 30°54' W 119°37'611.3
2017-Oct-06 17:00N 30°55' W 119°31'611.4
2017-Oct-06 16:31N 30°56' W 119°24'611.5
2017-Oct-06 16:00N 30°57' W 119°18'611.6
2017-Oct-06 15:31N 30°58' W 119°11'611.6
2017-Oct-06 15:00N 30°60' W 119°04'611.6
2017-Oct-06 14:31N 31°01' W 118°58'611.6
2017-Oct-06 14:00N 31°02' W 118°51'611.7
2017-Oct-06 13:30N 31°03' W 118°45'612.2
2017-Oct-06 13:00N 31°05' W 118°38'611.5
2017-Oct-06 12:30N 31°08' W 118°32'612.1
2017-Oct-06 12:00N 31°12' W 118°27'611.8
2017-Oct-06 11:31N 31°16' W 118°22'612.0
2017-Oct-06 11:01N 31°21' W 118°18'612.1
2017-Oct-06 10:30N 31°25' W 118°12'612.0
2017-Oct-06 10:00N 31°29' W 118°07'611.8
2017-Oct-06 09:30N 31°33' W 118°03'611.6
2017-Oct-06 09:01N 31°38' W 117°58'611.8
2017-Oct-06 08:31N 31°42' W 117°53'611.7
2017-Oct-06 07:59N 31°47' W 117°48'612.0
2017-Oct-06 07:31N 31°51' W 117°44'611.6
2017-Oct-06 07:00N 31°55' W 117°39'711.9
2017-Oct-06 06:28N 32°01' W 117°36'511.9
2017-Oct-06 06:01N 32°06' W 117°34'611.7
2017-Oct-06 05:30N 32°12' W 117°31'611.6
2017-Oct-06 05:00N 32°17' W 117°29'611.7
2017-Oct-06 04:31N 32°22' W 117°26'612.2
2017-Oct-06 04:00N 32°28' W 117°23'4 8.6
2017-Oct-06 03:31N 32°32' W 117°21'1 1.7
2017-Oct-06 02:58N 32°33' W 117°21'0 0.1
2017-Oct-06 02:28N 32°33' W 117°21'0 0.1
2017-Oct-06 01:58N 32°33' W 117°21'0 0.1
2017-Oct-06 01:28N 32°33' W 117°21'0 0.1
2017-Oct-06 00:55N 32°33' W 117°21'0 0.1
2017-Oct-06 00:28N 32°33' W 117°21'0 0.0
2017-Oct-05 23:58N 32°33' W 117°21'0 0.0
2017-Oct-05 23:28N 32°33' W 117°21'0 0.0
2017-Oct-05 22:58N 32°33' W 117°21'0 0.0
2017-Oct-05 22:28N 32°33' W 117°21'0 0.0
2017-Oct-05 21:58N 32°33' W 117°21'0 0.0
2017-Oct-05 21:25N 32°33' W 117°21'0 0.1
2017-Oct-05 20:58N 32°33' W 117°21'0 0.0
2017-Oct-05 20:28N 32°33' W 117°21'0 0.0
2017-Oct-05 19:58N 32°33' W 117°21'0 0.0
2017-Oct-05 19:28N 32°33' W 117°21'0 0.0
2017-Oct-05 18:58N 32°33' W 117°21'0 0.1
2017-Oct-05 18:28N 32°33' W 117°21'0 0.0
2017-Oct-05 17:58N 32°33' W 117°21'0 0.1
2017-Oct-05 17:25N 32°33' W 117°21'0 0.2
2017-Oct-05 16:58N 32°33' W 117°21'0 0.0
2017-Oct-05 15:28N 32°33' W 117°21'0 0.1
2017-Oct-05 14:58N 32°33' W 117°21'0 0.0
2017-Oct-05 14:19N 32°33' W 117°21'0 0.0
2017-Oct-05 13:58N 32°33' W 117°21'0 0.0
2017-Oct-05 13:28N 32°33' W 117°21'0 0.0
2017-Oct-05 12:58N 32°33' W 117°21'0 0.1
2017-Oct-05 12:28N 32°33' W 117°21'0 0.1
2017-Oct-05 11:58N 32°33' W 117°21'0 0.0
2017-Oct-05 11:28N 32°33' W 117°21'0 0.0
2017-Oct-05 10:58N 32°33' W 117°21'0 0.0
2017-Oct-05 10:28N 32°33' W 117°21'0 0.1
2017-Oct-05 09:58N 32°33' W 117°21'0 0.0
2017-Oct-05 09:28N 32°33' W 117°21'0 0.1
2017-Oct-05 08:58N 32°33' W 117°21'0 0.0
2017-Oct-05 08:25N 32°33' W 117°21'0 0.3
2017-Oct-05 07:52N 32°33' W 117°21'1 2.7
2017-Oct-05 07:30N 32°34' W 117°22'3 6.8
2017-Oct-05 07:00N 32°36' W 117°25'510.6
2017-Oct-05 06:30N 32°40' W 117°29'510.7
2017-Oct-05 06:00N 32°44' W 117°33'510.8
2017-Oct-05 05:30N 32°48' W 117°38'511.0
2017-Oct-05 05:01N 32°52' W 117°42'510.9
2017-Oct-05 04:30N 32°56' W 117°46'510.9
2017-Oct-05 04:01N 33°00' W 117°50'511.0
2017-Oct-05 03:30N 33°05' W 117°54'611.3
2017-Oct-05 03:00N 33°09' W 117°58'611.2
2017-Oct-05 02:30N 33°14' W 118°02'611.4
2017-Oct-05 02:00N 33°18' W 118°06'611.5
2017-Oct-05 01:30N 33°24' W 118°09'611.5
2017-Oct-05 01:00N 33°28' W 118°13'611.5
2017-Oct-05 00:30N 33°33' W 118°17'611.6
2017-Oct-05 00:01N 33°37' W 118°22'510.4
2017-Oct-04 23:30N 33°41' W 118°26'510.5
2017-Oct-04 23:00N 33°39' W 118°20'611.2
2017-Oct-04 22:30N 33°39' W 118°13'5 9.1
2017-Oct-04 22:00N 33°43' W 118°11'2 4.4
2017-Oct-04 21:30N 33°43' W 118°14'0 0.3
2017-Oct-04 20:59N 33°43' W 118°14'0 0.0
2017-Oct-04 20:29N 33°43' W 118°14'0 0.1
2017-Oct-04 19:38N 33°43' W 118°14'0 0.0
2017-Oct-04 19:26N 33°43' W 118°14'0 0.0
2017-Oct-04 18:59N 33°43' W 118°14'0 0.1
2017-Oct-04 18:29N 33°43' W 118°14'0 0.2
2017-Oct-04 17:50N 33°43' W 118°14'0 0.1
2017-Oct-04 17:23N 33°43' W 118°14'0 0.1
2017-Oct-04 16:44N 33°43' W 118°14'0 0.0
2017-Oct-04 16:26N 33°43' W 118°14'0 0.0
2017-Oct-04 15:56N 33°43' W 118°14'0 0.1
2017-Oct-04 15:29N 33°43' W 118°14'0 0.0
2017-Oct-04 14:50N 33°43' W 118°14'0 0.0
2017-Oct-04 08:17N 33°43' W 118°14'0 0.0
2017-Oct-04 02:56N 33°43' W 118°14'0 0.0
2017-Oct-04 02:08N 33°43' W 118°14'0 0.0
2017-Oct-04 01:50N 33°43' W 118°14'0 0.0
2017-Oct-04 01:26N 33°43' W 118°14'0 0.0
2017-Oct-03 23:14N 33°43' W 118°14'0 0.0
2017-Oct-03 22:44N 33°43' W 118°14'0 0.1
2017-Oct-03 20:26N 33°43' W 118°14'0 0.0
2017-Oct-03 19:59N 33°43' W 118°14'0 0.0
2017-Oct-03 16:14N 33°43' W 118°14'0 0.0
2017-Oct-03 12:44N 33°43' W 118°14'0 0.0
2017-Oct-03 12:26N 33°43' W 118°14'0 0.0
2017-Oct-03 10:56N 33°43' W 118°14'0 0.0
2017-Oct-03 09:56N 33°43' W 118°14'0 0.0
2017-Oct-03 09:26N 33°43' W 118°14'0 0.0
2017-Oct-03 08:56N 33°43' W 118°14'0 0.0
2017-Oct-03 08:26N 33°43' W 118°14'0 0.0
2017-Oct-03 03:05N 33°43' W 118°14'0 0.0
2017-Oct-03 02:56N 33°43' W 118°14'0 0.0
2017-Oct-03 01:32N 33°43' W 118°14'0 0.1
2017-Oct-03 01:11N 33°43' W 118°14'0 0.0
2017-Oct-03 00:59N 33°43' W 118°14'0 0.0
2017-Oct-02 23:14N 33°43' W 118°14'0 0.1
2017-Oct-02 22:56N 33°43' W 118°14'0 0.0
2017-Oct-02 19:56N 33°43' W 118°14'0 0.1
2017-Oct-02 19:26N 33°43' W 118°14'0 0.1
2017-Oct-02 18:32N 33°43' W 118°14'0 0.1
2017-Oct-02 18:26N 33°43' W 118°14'0 0.1
2017-Oct-02 17:56N 33°43' W 118°14'0 0.0
2017-Oct-02 06:50N 33°43' W 118°14'0 0.0
2017-Oct-02 06:26N 33°43' W 118°14'0 0.0
2017-Oct-02 05:56N 33°43' W 118°14'0 0.1
2017-Oct-02 05:23N 33°43' W 118°14'0 0.2
2017-Oct-02 04:59N 33°43' W 118°14'0 0.0
2017-Oct-02 02:59N 33°43' W 118°14'0 0.1
2017-Oct-02 02:29N 33°43' W 118°14'0 0.0
2017-Oct-02 01:56N 33°43' W 118°14'0 0.1
2017-Oct-02 01:29N 33°43' W 118°14'0 0.1
2017-Oct-02 00:56N 33°43' W 118°14'0 0.0
2017-Oct-02 00:29N 33°43' W 118°14'0 0.0
2017-Oct-01 23:59N 33°43' W 118°14'0 0.0
2017-Oct-01 23:17N 33°43' W 118°14'0 0.0
2017-Oct-01 22:56N 33°43' W 118°14'0 0.1
2017-Oct-01 22:20N 33°43' W 118°14'0 0.0
2017-Oct-01 21:50N 33°43' W 118°14'0 0.0
2017-Oct-01 21:29N 33°43' W 118°14'0 0.0
2017-Oct-01 20:59N 33°43' W 118°14'0 0.0
2017-Oct-01 20:23N 33°43' W 118°14'0 0.1
2017-Oct-01 19:50N 33°43' W 118°14'0 0.2
2017-Oct-01 19:20N 33°43' W 118°14'0 0.1
2017-Oct-01 18:59N 33°43' W 118°14'0 0.1
2017-Oct-01 18:26N 33°43' W 118°14'0 0.1
2017-Oct-01 17:38N 33°43' W 118°14'0 0.0
2017-Oct-01 17:29N 33°43' W 118°14'0 0.1
2017-Oct-01 16:59N 33°43' W 118°14'0 0.0
2017-Oct-01 16:26N 33°43' W 118°14'0 0.1
2017-Oct-01 15:59N 33°43' W 118°14'0 0.1
2017-Oct-01 15:14N 33°43' W 118°14'0 0.0
2017-Oct-01 14:56N 33°43' W 118°14'0 0.0
2017-Oct-01 14:29N 33°43' W 118°14'0 0.1
2017-Oct-01 13:50N 33°43' W 118°14'0 0.0
2017-Oct-01 13:29N 33°43' W 118°14'0 0.1
2017-Oct-01 12:56N 33°43' W 118°14'0 0.1
2017-Oct-01 12:29N 33°43' W 118°14'0 0.0
2017-Oct-01 11:56N 33°43' W 118°14'0 0.0
2017-Oct-01 11:29N 33°43' W 118°14'0 0.0
2017-Oct-01 10:59N 33°43' W 118°14'0 0.0
2017-Oct-01 10:29N 33°43' W 118°14'0 0.0
2017-Oct-01 09:59N 33°43' W 118°14'0 0.0
2017-Oct-01 09:29N 33°43' W 118°14'0 0.1
2017-Oct-01 08:53N 33°43' W 118°14'0 0.1
2017-Oct-01 08:29N 33°43' W 118°14'0 0.1
2017-Oct-01 07:59N 33°43' W 118°14'0 0.0
2017-Oct-01 07:29N 33°43' W 118°14'0 0.0
2017-Oct-01 06:59N 33°43' W 118°14'0 0.0
2017-Oct-01 06:29N 33°43' W 118°14'0 0.1
2017-Oct-01 05:59N 33°43' W 118°14'0 0.0
2017-Oct-01 05:29N 33°43' W 118°14'0 0.0
2017-Oct-01 04:59N 33°43' W 118°14'0 0.0
2017-Oct-01 04:29N 33°43' W 118°14'0 0.1
2017-Oct-01 03:59N 33°43' W 118°14'0 0.0
2017-Oct-01 03:29N 33°43' W 118°14'0 0.0
2017-Oct-01 02:59N 33°43' W 118°14'0 0.0
2017-Sep-30 01:56N 33°43' W 118°14'0 0.0
2017-Sep-30 01:29N 33°43' W 118°14'0 0.1
2017-Sep-30 00:59N 33°43' W 118°14'0 0.0
2017-Sep-30 00:29N 33°43' W 118°14'0 0.0
2017-Sep-29 23:56N 33°43' W 118°14'0 0.1
2017-Sep-29 23:29N 33°43' W 118°14'0 0.0
2017-Sep-29 22:59N 33°43' W 118°14'0 0.1
2017-Sep-29 22:29N 33°43' W 118°14'0 0.0
2017-Sep-29 21:59N 33°43' W 118°14'0 0.1
2017-Sep-29 21:29N 33°43' W 118°14'0 0.0
2017-Sep-29 20:59N 33°43' W 118°14'0 0.0
2017-Sep-29 20:29N 33°43' W 118°14'0 0.0
2017-Sep-29 19:59N 33°43' W 118°14'0 0.0
2017-Sep-29 19:29N 33°43' W 118°14'0 0.0
2017-Sep-29 18:59N 33°43' W 118°14'0 0.1
2017-Sep-29 18:29N 33°43' W 118°14'0 0.1
2017-Sep-29 17:59N 33°43' W 118°14'0 0.1
2017-Sep-29 17:29N 33°43' W 118°14'0 0.1
2017-Sep-29 16:59N 33°43' W 118°14'0 0.0
2017-Sep-29 16:23N 33°43' W 118°14'0 0.0
2017-Sep-29 15:56N 33°43' W 118°14'0 0.0
2017-Sep-29 15:26N 33°43' W 118°14'0 0.0
2017-Sep-29 14:59N 33°43' W 118°14'0 0.0
2017-Sep-29 14:29N 33°43' W 118°14'0 0.0
2017-Sep-29 13:44N 33°43' W 118°14'0 0.0
2017-Sep-29 13:26N 33°43' W 118°14'0 0.0
2017-Sep-29 12:59N 33°43' W 118°14'0 0.0
2017-Sep-29 12:29N 33°43' W 118°14'0 0.0
2017-Sep-29 11:59N 33°43' W 118°14'0 0.0
2017-Sep-29 11:29N 33°43' W 118°14'0 0.0
2017-Sep-29 10:56N 33°43' W 118°14'0 0.0
2017-Sep-29 10:29N 33°43' W 118°14'0 0.0
2017-Sep-29 09:56N 33°43' W 118°14'0 0.1
2017-Sep-29 09:29N 33°43' W 118°14'0 0.1
2017-Sep-29 08:59N 33°43' W 118°14'0 0.0
2017-Sep-29 08:29N 33°43' W 118°14'0 0.1
2017-Sep-29 07:59N 33°43' W 118°14'0 0.0
2017-Sep-29 07:29N 33°43' W 118°14'0 0.0
2017-Sep-29 06:59N 33°43' W 118°14'0 0.1
2017-Sep-29 06:29N 33°43' W 118°14'0 0.1
2017-Sep-29 05:59N 33°43' W 118°14'0 0.0
2017-Sep-29 05:29N 33°43' W 118°14'0 0.1
2017-Sep-29 04:59N 33°43' W 118°14'0 0.0
2017-Sep-29 04:29N 33°43' W 118°14'0 0.1
2017-Sep-29 03:59N 33°43' W 118°14'0 0.1
2017-Sep-29 03:29N 33°43' W 118°14'0 0.1
2017-Sep-29 02:56N 33°43' W 118°14'0 0.1
2017-Sep-29 02:26N 33°43' W 118°14'0 0.0
2017-Sep-29 01:59N 33°43' W 118°14'0 0.1
2017-Sep-29 01:29N 33°43' W 118°14'0 0.1
2017-Sep-29 00:59N 33°43' W 118°14'0 0.0
2017-Sep-29 00:29N 33°43' W 118°14'0 0.0
2017-Sep-28 23:59N 33°43' W 118°14'0 0.0
2017-Sep-28 23:23N 33°43' W 118°14'0 0.0
2017-Sep-28 22:59N 33°43' W 118°14'0 0.0
2017-Sep-28 22:29N 33°43' W 118°14'0 0.0
2017-Sep-28 21:59N 33°43' W 118°14'0 0.0
2017-Sep-28 21:29N 33°43' W 118°14'0 0.0
2017-Sep-28 20:56N 33°43' W 118°14'0 0.0
2017-Sep-28 20:29N 33°43' W 118°14'0 0.0
2017-Sep-28 19:59N 33°43' W 118°14'0 0.0
2017-Sep-28 19:29N 33°43' W 118°14'0 0.1
2017-Sep-28 18:59N 33°43' W 118°14'0 0.0
2017-Sep-28 18:26N 33°43' W 118°14'0 0.2
2017-Sep-28 17:56N 33°43' W 118°14'0 0.1
2017-Sep-28 17:29N 33°43' W 118°14'0 0.0
2017-Sep-28 16:59N 33°43' W 118°14'0 0.0
2017-Sep-28 16:29N 33°43' W 118°14'0 0.1
2017-Sep-28 15:59N 33°43' W 118°14'0 0.1
2017-Sep-28 15:29N 33°43' W 118°14'0 0.0
2017-Sep-28 14:59N 33°43' W 118°14'0 0.1
2017-Sep-28 14:29N 33°43' W 118°14'0 0.1
2017-Sep-28 13:44N 33°43' W 118°14'0 0.1
2017-Sep-28 13:29N 33°43' W 118°14'0 0.0
2017-Sep-28 12:59N 33°43' W 118°14'0 0.1
2017-Sep-28 12:29N 33°43' W 118°14'  

Dump ship's entire track history